createdAt,value
2023-04-24T00:01:54.821Z,1.17
2023-04-24T00:05:57.771Z,0.68
2023-04-24T00:10:00.979Z,0.57
2023-04-24T00:14:08.568Z,0.80
2023-04-24T00:18:11.352Z,0.80
2023-04-24T00:22:16.655Z,0.57
2023-04-24T00:26:19.426Z,0.80
2023-04-24T00:30:23.694Z,0.90
2023-04-24T00:34:26.712Z,1.27
2023-04-24T00:38:29.395Z,1.10
2023-04-24T00:42:32.344Z,0.98
2023-04-24T00:46:36.589Z,1.08
2023-04-24T00:50:40.509Z,1.13
2023-04-24T00:54:43.457Z,1.00
2023-04-24T00:58:46.894Z,1.40
2023-04-24T01:02:53.131Z,1.60
2023-04-24T01:06:57.715Z,1.20
2023-04-24T01:11:00.721Z,1.80
2023-04-24T01:15:05.003Z,1.73
2023-04-24T01:19:09.855Z,2.35
2023-04-24T01:23:14.222Z,2.17
2023-04-24T01:27:17.567Z,2.55
2023-04-24T01:31:20.889Z,2.58
2023-04-24T01:35:23.926Z,2.10
2023-04-24T01:39:29.559Z,2.55
2023-04-24T01:43:32.579Z,2.85
2023-04-24T01:47:35.380Z,2.50
2023-04-24T01:51:38.325Z,2.33
2023-04-24T01:55:42.652Z,2.55
2023-04-24T01:59:46.227Z,2.78
2023-04-24T02:03:49.364Z,2.85
2023-04-24T02:07:52.184Z,3.10
2023-04-24T02:11:57.668Z,2.78
2023-04-24T02:16:00.620Z,2.95
2023-04-24T02:20:03.911Z,3.22
2023-04-24T02:24:06.822Z,2.92
2023-04-24T02:28:11.057Z,3.92
2023-04-24T02:32:16.919Z,3.72
2023-04-24T02:36:19.752Z,3.70
2023-04-24T02:40:22.604Z,3.75
2023-04-24T02:44:27.267Z,4.68
2023-04-24T02:48:30.067Z,4.13
2023-04-24T02:52:33.448Z,4.20
2023-04-24T02:56:36.222Z,5.03
2023-04-24T03:00:41.220Z,4.70
2023-04-24T03:04:44.224Z,4.18
2023-04-24T03:08:47.142Z,4.72
2023-04-24T03:12:50.052Z,4.55
2023-04-24T03:16:54.118Z,4.47
2023-04-24T03:20:57.075Z,4.93
2023-04-24T03:24:59.838Z,4.45
2023-04-24T03:29:03.053Z,4.35
2023-04-24T03:33:07.575Z,5.28
2023-04-24T03:37:10.434Z,4.38
2023-04-24T03:41:13.397Z,4.80
2023-04-24T03:45:16.819Z,5.25
2023-04-24T03:49:22.445Z,5.05
2023-04-24T03:53:26.058Z,4.47
2023-04-24T03:57:28.795Z,4.85
2023-04-24T04:01:31.851Z,5.35
2023-04-24T04:05:36.539Z,5.40
2023-04-24T04:09:39.341Z,6.55
2023-04-24T04:13:42.199Z,6.03
2023-04-24T04:17:45.142Z,5.30
2023-04-24T04:21:53.160Z,6.03
2023-04-24T04:25:56.106Z,6.38
2023-04-24T04:29:58.798Z,6.38
2023-04-24T04:34:02.699Z,6.00
2023-04-24T04:42:12.805Z,6.40
2023-04-24T04:46:15.530Z,6.28
2023-04-24T04:50:20.496Z,5.78
2023-04-24T04:54:24.898Z,7.00
2023-04-24T04:58:27.886Z,6.43
2023-04-24T05:02:30.727Z,6.22
2023-04-24T05:06:33.882Z,6.10
2023-04-24T05:10:38.701Z,7.15
2023-04-24T05:14:41.996Z,6.10
2023-04-24T05:18:45.154Z,6.88
2023-04-24T05:22:47.766Z,6.85
2023-04-24T05:26:52.359Z,6.07
2023-04-24T05:30:55.278Z,6.03
2023-04-24T05:34:59.013Z,5.78
2023-04-24T05:39:04.321Z,5.80
2023-04-24T05:43:08.584Z,5.38
2023-04-24T05:47:11.350Z,5.65
2023-04-24T05:51:14.445Z,6.38
2023-04-24T05:55:19.466Z,5.68
2023-04-24T05:59:24.767Z,5.10
2023-04-24T06:03:27.952Z,4.95
2023-04-24T06:07:31.178Z,5.30
2023-04-24T06:11:33.929Z,4.82
2023-04-24T06:15:38.423Z,4.50
2023-04-24T06:19:41.653Z,4.07
2023-04-24T06:23:44.526Z,4.20
2023-04-24T06:27:47.277Z,4.32
2023-04-24T06:31:51.699Z,4.10
2023-04-24T06:35:57.080Z,4.45
2023-04-24T06:40:00.238Z,3.97
2023-04-24T06:44:03.350Z,4.40
2023-04-24T06:48:07.613Z,4.07
2023-04-24T06:52:10.526Z,4.90
2023-04-24T06:56:14.344Z,4.18
2023-04-24T07:00:18.681Z,4.10
2023-04-24T07:04:23.053Z,3.88
2023-04-24T07:08:26.488Z,3.67
2023-04-24T07:12:29.144Z,3.20
2023-04-24T07:16:32.018Z,3.55
2023-04-24T07:20:36.600Z,4.53
2023-04-24T07:24:39.253Z,3.45
2023-04-24T07:28:42.369Z,3.70
2023-04-24T07:32:45.019Z,4.00
2023-04-24T07:36:49.376Z,4.28
2023-04-24T07:40:52.289Z,4.65
2023-04-24T07:44:55.072Z,4.50
2023-04-24T07:49:11.681Z,4.15
2023-04-24T07:53:17.561Z,5.00
2023-04-24T07:57:20.868Z,4.63
2023-04-24T08:01:23.616Z,5.10
2023-04-24T08:05:28.429Z,4.70
2023-04-24T08:09:32.653Z,4.45
2023-04-24T08:13:35.269Z,4.32
2023-04-24T08:17:38.005Z,4.30
2023-04-24T08:21:40.694Z,5.30
2023-04-24T08:25:44.649Z,3.92
2023-04-24T08:29:47.281Z,3.90
2023-04-24T08:33:49.915Z,4.00
2023-04-24T08:37:55.580Z,4.25
2023-04-24T08:42:06.129Z,4.50
2023-04-24T08:46:12.176Z,5.10
2023-04-24T08:50:16.265Z,4.45
2023-04-24T08:58:23.177Z,5.07
2023-04-24T09:02:27.339Z,5.40
2023-04-24T09:06:31.239Z,5.40
2023-04-24T09:14:40.132Z,5.60
2023-04-24T09:18:42.826Z,4.68
2023-04-24T09:22:47.296Z,6.43
2023-04-24T09:26:50.599Z,5.78
2023-04-24T09:31:06.522Z,5.63
2023-04-24T09:35:11.405Z,5.78
2023-04-24T09:39:16.495Z,5.75
2023-04-24T09:43:19.292Z,5.78
2023-04-24T09:47:23.350Z,5.30
2023-04-24T09:51:36.293Z,4.93
2023-04-24T09:55:41.939Z,4.78
2023-04-24T09:59:46.200Z,3.72
2023-04-24T10:03:50.365Z,4.03
2023-04-24T10:07:53.769Z,3.53
2023-04-24T10:11:56.830Z,3.25
2023-04-24T10:16:01.244Z,3.47
2023-04-24T10:20:07.221Z,3.40
2023-04-24T10:24:11.016Z,4.30
2023-04-24T10:28:14.248Z,4.32
2023-04-24T10:32:16.853Z,3.95
2023-04-24T10:36:21.069Z,4.50
2023-04-24T10:40:28.625Z,5.07
2023-04-24T10:44:38.850Z,4.55
2023-04-24T10:48:45.105Z,4.00
2023-04-24T10:52:52.345Z,3.80
2023-04-24T10:56:55.611Z,4.15
2023-04-24T11:00:59.599Z,3.85
2023-04-24T11:05:05.179Z,3.72
2023-04-24T11:09:13.310Z,3.83
2023-04-24T11:13:23.988Z,4.53
2023-04-24T11:17:32.101Z,3.90
2023-04-24T11:21:41.988Z,4.55
2023-04-24T11:29:51.510Z,4.40
2023-04-24T11:33:54.946Z,3.72
2023-04-24T11:42:07.824Z,4.25
2023-04-24T11:46:10.591Z,3.75
2023-04-24T11:50:15.488Z,4.30
2023-04-24T11:54:18.175Z,5.03
2023-04-24T11:58:24.279Z,5.20
2023-04-24T12:02:28.205Z,5.40
2023-04-24T12:06:31.730Z,5.10
2023-04-24T12:10:35.678Z,4.72
2023-04-24T12:14:52.534Z,4.20
2023-04-24T12:18:55.304Z,4.47
2023-04-24T12:22:59.194Z,3.70
2023-04-24T12:27:02.556Z,3.20
2023-04-24T12:35:09.945Z,2.90
2023-04-24T12:43:20.447Z,3.28
2023-04-24T12:47:24.738Z,2.70
2023-04-24T12:51:27.405Z,3.17
2023-04-24T12:55:30.214Z,3.75
2023-04-24T12:59:32.901Z,3.90
2023-04-24T13:03:37.640Z,4.35
2023-04-24T13:07:40.416Z,5.00
2023-04-24T13:11:43.063Z,5.13
2023-04-24T13:15:45.732Z,4.82
2023-04-24T13:19:52.424Z,4.43
2023-04-24T13:23:57.315Z,4.10
2023-04-24T13:27:59.906Z,3.78
2023-04-24T13:32:03.027Z,3.58
2023-04-24T13:36:07.267Z,3.55
2023-04-24T13:40:11.287Z,3.10
2023-04-24T13:44:14.018Z,3.10
2023-04-24T13:48:16.879Z,3.05
2023-04-24T13:52:21.280Z,2.60
2023-04-24T13:56:24.365Z,2.45
2023-04-24T14:00:27.276Z,2.80
2023-04-24T14:04:30.101Z,2.50
2023-04-24T14:08:34.612Z,2.25
2023-04-24T14:12:37.385Z,2.42
2023-04-24T14:16:40.191Z,2.35
2023-04-24T14:20:43.296Z,2.40
2023-04-24T14:24:47.268Z,2.50
2023-04-24T14:28:51.116Z,2.75
2023-04-24T14:32:55.140Z,2.28
2023-04-24T14:36:57.874Z,2.40
2023-04-24T14:41:06.808Z,1.52
2023-04-24T14:45:12.561Z,1.45
2023-04-24T14:49:15.426Z,1.17
2023-04-24T14:53:18.269Z,2.08
2023-04-24T14:57:22.305Z,1.85
2023-04-24T15:01:26.539Z,2.10
2023-04-24T15:05:29.904Z,2.58
2023-04-24T15:09:33.577Z,2.55
2023-04-24T15:13:37.641Z,2.50
2023-04-24T15:17:40.358Z,2.63
2023-04-24T15:21:44.107Z,2.08
2023-04-24T15:25:47.030Z,1.98
2023-04-24T15:29:51.068Z,2.50
2023-04-24T15:33:56.106Z,2.35
2023-04-24T15:37:58.837Z,2.83
2023-04-24T15:42:01.573Z,2.42
2023-04-24T15:46:05.656Z,3.30
2023-04-24T15:50:12.779Z,3.30
2023-04-24T15:54:16.965Z,3.15
2023-04-24T15:58:20.555Z,2.17
2023-04-24T16:06:27.912Z,4.57
2023-04-24T16:10:30.641Z,1.88
2023-04-24T16:14:33.311Z,1.65
2023-04-24T16:18:37.375Z,1.77
2023-04-24T16:22:40.195Z,1.77
2023-04-24T16:26:43.401Z,1.65
2023-04-24T16:30:46.036Z,2.22
2023-04-24T16:34:50.568Z,2.10
2023-04-24T16:38:53.214Z,2.30
2023-04-24T16:42:55.849Z,2.55
2023-04-24T16:46:58.569Z,2.25
2023-04-24T16:51:02.786Z,2.75
2023-04-24T16:55:06.084Z,2.60
2023-04-24T16:59:08.865Z,2.55
2023-04-24T17:03:12.894Z,3.05
2023-04-24T17:07:17.629Z,2.60
2023-04-24T17:11:21.104Z,2.92
2023-04-24T17:15:23.717Z,3.28
2023-04-24T17:19:27.012Z,3.42
2023-04-24T17:23:31.220Z,3.33
2023-04-24T17:27:34.210Z,3.15
2023-04-24T17:31:37.061Z,3.20
2023-04-24T17:35:39.741Z,3.40
2023-04-24T17:39:43.691Z,3.50
2023-04-24T17:43:46.461Z,2.90
2023-04-24T17:47:50.622Z,3.03
2023-04-24T17:51:54.527Z,2.83
2023-04-24T17:56:01.930Z,3.05
2023-04-24T18:00:05.246Z,3.22
2023-04-24T18:04:08.119Z,3.00
2023-04-24T18:08:11.422Z,3.03
2023-04-24T18:12:16.035Z,3.05
2023-04-24T18:16:18.898Z,2.80
2023-04-24T18:20:21.749Z,2.88
2023-04-24T18:24:24.548Z,3.13
2023-04-24T18:28:31.429Z,3.10
2023-04-24T18:32:34.151Z,3.13
2023-04-24T18:36:36.998Z,3.40
2023-04-24T18:40:39.774Z,3.60
2023-04-24T18:44:43.746Z,3.40
2023-04-24T18:48:46.571Z,3.38
2023-04-24T18:52:49.466Z,4.50
2023-04-24T18:56:54.869Z,3.45
2023-04-24T19:00:58.931Z,3.85
2023-04-24T19:05:01.619Z,3.97
2023-04-24T19:09:04.394Z,4.25
2023-04-24T19:13:07.087Z,5.10
2023-04-24T19:17:11.169Z,4.55
2023-04-24T19:21:14.415Z,4.00
2023-04-24T19:25:17.106Z,3.75
2023-04-24T19:29:19.956Z,3.67
2023-04-24T19:33:24.055Z,3.17
2023-04-24T19:37:26.777Z,3.22
2023-04-24T19:41:29.694Z,3.33
2023-04-24T19:45:32.375Z,2.92
2023-04-24T19:49:36.454Z,3.42
2023-04-24T19:53:39.358Z,2.95
2023-04-24T19:57:42.458Z,3.72
2023-04-24T20:01:45.181Z,3.40
2023-04-24T20:05:49.225Z,3.10
2023-04-24T20:09:52.094Z,3.67
2023-04-24T20:13:54.882Z,3.72
2023-04-24T20:17:57.501Z,3.92
2023-04-24T20:22:01.976Z,4.45
2023-04-24T20:26:05.022Z,4.20
2023-04-24T20:30:12.780Z,4.72
2023-04-24T20:34:15.549Z,3.20
2023-04-24T20:38:19.533Z,3.20
2023-04-24T20:42:22.156Z,3.35
2023-04-24T20:46:24.783Z,3.08
2023-04-24T20:50:27.785Z,3.22
2023-04-24T20:54:31.763Z,3.33
2023-04-24T21:02:36.896Z,5.32
2023-04-24T21:06:39.591Z,3.00
2023-04-24T21:10:43.562Z,4.18
2023-04-24T21:14:46.176Z,3.80
2023-04-24T21:18:48.820Z,3.83
2023-04-24T21:22:51.455Z,4.22
2023-04-24T21:26:55.460Z,3.83
2023-04-24T21:30:58.175Z,3.65
2023-04-24T21:35:00.800Z,4.18
2023-04-24T21:39:03.425Z,4.65
2023-04-24T21:43:07.406Z,4.25
2023-04-24T21:47:10.532Z,4.05
2023-04-24T21:51:14.127Z,4.97
2023-04-24T21:55:16.983Z,4.90
2023-04-24T21:59:21.108Z,4.40
2023-04-24T22:03:25.984Z,4.95
2023-04-24T22:07:28.877Z,4.60
2023-04-24T22:11:31.554Z,4.22
2023-04-24T22:15:35.609Z,5.00
2023-04-24T22:19:38.886Z,4.95
2023-04-24T22:23:42.932Z,4.90
2023-04-24T22:27:45.588Z,7.45
2023-04-24T22:31:50.422Z,6.05
2023-04-24T22:35:53.159Z,5.88
2023-04-24T22:39:56.231Z,5.88
2023-04-24T22:43:58.918Z,6.63
2023-04-24T22:48:08.180Z,6.10
2023-04-24T22:52:15.702Z,6.30
2023-04-24T22:56:28.957Z,6.03
2023-04-24T23:00:36.250Z,6.93
2023-04-24T23:05:15.344Z,6.50
2023-04-24T23:09:22.890Z,6.43
2023-04-24T23:13:31.973Z,6.65
2023-04-24T23:22:35.204Z,7.57
2023-04-24T23:26:52.465Z,8.30
2023-04-24T23:31:16.923Z,6.45
2023-04-24T23:35:27.547Z,7.25
2023-04-24T23:39:36.516Z,6.25
2023-04-24T23:43:45.542Z,6.60
2023-04-24T23:48:08.748Z,8.27
2023-04-24T23:56:34.570Z,6.68
